sensor_id;sensor_type;location;lat;lon;timestamp;pressure;altitude;pressure_sealevel;temperature;humidity
59116;BME280;53564;51.930;4.640;2022-07-19T00:02:12;101953.00;;;24.09;49.18
59116;BME280;53564;51.930;4.640;2022-07-19T00:04:37;101963.25;;;24.18;48.75
59116;BME280;53564;51.930;4.640;2022-07-19T00:07:03;101964.34;;;23.74;52.21
59116;BME280;53564;51.930;4.640;2022-07-19T00:09:28;101956.41;;;22.42;58.62
59116;BME280;53564;51.930;4.640;2022-07-19T00:11:54;101971.44;;;22.91;53.43
59116;BME280;53564;51.930;4.640;2022-07-19T00:14:19;101970.19;;;22.38;58.02
59116;BME280;53564;51.930;4.640;2022-07-19T00:16:45;101969.88;;;22.58;55.15
59116;BME280;53564;51.930;4.640;2022-07-19T00:19:10;101960.78;;;22.59;54.87
59116;BME280;53564;51.930;4.640;2022-07-19T00:21:35;101950.28;;;23.27;51.63
59116;BME280;53564;51.930;4.640;2022-07-19T00:24:01;101954.22;;;23.36;51.85
59116;BME280;53564;51.930;4.640;2022-07-19T00:26:27;101957.31;;;22.57;57.03
59116;BME280;53564;51.930;4.640;2022-07-19T00:28:53;101954.41;;;23.33;51.84
59116;BME280;53564;51.930;4.640;2022-07-19T00:31:22;101941.84;;;23.32;51.50
59116;BME280;53564;51.930;4.640;2022-07-19T00:33:48;101950.69;;;23.48;50.32
59116;BME280;53564;51.930;4.640;2022-07-19T00:36:13;101951.75;;;23.60;50.62
59116;BME280;53564;51.930;4.640;2022-07-19T00:38:38;101951.53;;;23.21;55.46
59116;BME280;53564;51.930;4.640;2022-07-19T00:41:04;101954.63;;;22.86;52.94
59116;BME280;53564;51.930;4.640;2022-07-19T00:43:29;101947.47;;;23.28;51.17
59116;BME280;53564;51.930;4.640;2022-07-19T00:45:55;101954.50;;;22.59;57.31
59116;BME280;53564;51.930;4.640;2022-07-19T00:48:21;101950.03;;;21.66;62.98
59116;BME280;53564;51.930;4.640;2022-07-19T00:50:47;101958.69;;;22.04;56.48
59116;BME280;53564;51.930;4.640;2022-07-19T00:53:14;101957.53;;;23.12;52.30
59116;BME280;53564;51.930;4.640;2022-07-19T00:55:41;101951.53;;;23.36;50.70
59116;BME280;53564;51.930;4.640;2022-07-19T00:58:08;101960.91;;;22.72;54.27
59116;BME280;53564;51.930;4.640;2022-07-19T01:00:35;101954.59;;;22.72;52.61
59116;BME280;53564;51.930;4.640;2022-07-19T01:03:01;101945.91;;;22.22;58.55
59116;BME280;53564;51.930;4.640;2022-07-19T01:05:27;101963.88;;;22.96;52.04
59116;BME280;53564;51.930;4.640;2022-07-19T01:07:52;101939.44;;;22.98;51.80
59116;BME280;53564;51.930;4.640;2022-07-19T01:10:18;101934.91;;;23.27;51.20
59116;BME280;53564;51.930;4.640;2022-07-19T01:12:43;101949.41;;;23.26;50.74
59116;BME280;53564;51.930;4.640;2022-07-19T01:15:18;101945.75;;;22.99;51.97
59116;BME280;53564;51.930;4.640;2022-07-19T01:17:44;101957.19;;;22.44;53.71
59116;BME280;53564;51.930;4.640;2022-07-19T01:20:10;101951.41;;;21.42;62.58
59116;BME280;53564;51.930;4.640;2022-07-19T01:22:36;101943.66;;;21.83;58.71
59116;BME280;53564;51.930;4.640;2022-07-19T01:25:01;101941.19;;;22.25;56.41
59116;BME280;53564;51.930;4.640;2022-07-19T01:27:27;101944.44;;;21.38;63.07
59116;BME280;53564;51.930;4.640;2022-07-19T01:29:52;101950.53;;;21.89;55.72
59116;BME280;53564;51.930;4.640;2022-07-19T01:32:17;101940.19;;;21.33;60.25
59116;BME280;53564;51.930;4.640;2022-07-19T01:34:42;101953.81;;;22.55;53.84
59116;BME280;53564;51.930;4.640;2022-07-19T01:37:08;101951.31;;;22.95;52.21
59116;BME280;53564;51.930;4.640;2022-07-19T01:39:33;101939.41;;;22.10;55.64
59116;BME280;53564;51.930;4.640;2022-07-19T01:41:58;101927.56;;;22.43;54.23
59116;BME280;53564;51.930;4.640;2022-07-19T01:44:24;101946.13;;;22.63;52.51
59116;BME280;53564;51.930;4.640;2022-07-19T01:46:49;101948.13;;;22.29;58.46
59116;BME280;53564;51.930;4.640;2022-07-19T01:49:14;101935.78;;;22.70;53.04
59116;BME280;53564;51.930;4.640;2022-07-19T01:51:39;101940.22;;;22.86;51.78
59116;BME280;53564;51.930;4.640;2022-07-19T01:54:05;101933.78;;;22.88;52.01
59116;BME280;53564;51.930;4.640;2022-07-19T01:56:30;101923.41;;;22.80;51.55
59116;BME280;53564;51.930;4.640;2022-07-19T01:58:55;101930.78;;;22.78;51.37
59116;BME280;53564;51.930;4.640;2022-07-19T02:01:20;101931.47;;;21.92;55.89
59116;BME280;53564;51.930;4.640;2022-07-19T02:03:46;101920.53;;;22.10;54.01
59116;BME280;53564;51.930;4.640;2022-07-19T02:06:11;101921.09;;;22.45;52.42
59116;BME280;53564;51.930;4.640;2022-07-19T02:08:36;101920.22;;;22.45;52.27
59116;BME280;53564;51.930;4.640;2022-07-19T02:11:02;101931.06;;;21.20;61.82
59116;BME280;53564;51.930;4.640;2022-07-19T02:13:50;101920.78;;;21.75;55.61
59116;BME280;53564;51.930;4.640;2022-07-19T02:16:16;101912.25;;;22.27;54.30
59116;BME280;53564;51.930;4.640;2022-07-19T02:18:41;101915.19;;;21.78;59.52
59116;BME280;53564;51.930;4.640;2022-07-19T02:21:06;101922.66;;;20.93;63.32
59116;BME280;53564;51.930;4.640;2022-07-19T02:23:31;101921.63;;;22.06;53.97
59116;BME280;53564;51.930;4.640;2022-07-19T02:25:57;101914.91;;;21.98;53.59
59116;BME280;53564;51.930;4.640;2022-07-19T02:28:22;101921.13;;;22.29;53.07
59116;BME280;53564;51.930;4.640;2022-07-19T02:30:47;101921.97;;;22.46;51.78
59116;BME280;53564;51.930;4.640;2022-07-19T02:33:12;101908.78;;;22.25;52.00
59116;BME280;53564;51.930;4.640;2022-07-19T02:35:38;101914.50;;;21.74;56.57
59116;BME280;53564;51.930;4.640;2022-07-19T02:38:03;101917.84;;;21.63;57.07
59116;BME280;53564;51.930;4.640;2022-07-19T02:40:28;101908.69;;;21.96;53.87
59116;BME280;53564;51.930;4.640;2022-07-19T02:42:53;101908.69;;;21.96;57.07
59116;BME280;53564;51.930;4.640;2022-07-19T02:45:19;101912.03;;;21.86;54.55
59116;BME280;53564;51.930;4.640;2022-07-19T02:47:44;101911.88;;;21.41;55.66
59116;BME280;53564;51.930;4.640;2022-07-19T02:50:09;101904.16;;;21.02;59.47
59116;BME280;53564;51.930;4.640;2022-07-19T02:52:35;101894.75;;;21.26;55.91
59116;BME280;53564;51.930;4.640;2022-07-19T02:55:00;101908.69;;;21.18;59.53
59116;BME280;53564;51.930;4.640;2022-07-19T02:57:25;101915.56;;;21.24;56.66
59116;BME280;53564;51.930;4.640;2022-07-19T02:59:50;101899.19;;;21.43;55.38
59116;BME280;53564;51.930;4.640;2022-07-19T03:02:16;101891.25;;;20.58;64.42
59116;BME280;53564;51.930;4.640;2022-07-19T03:04:41;101904.63;;;20.44;63.51
59116;BME280;53564;51.930;4.640;2022-07-19T03:07:06;101907.00;;;20.32;65.38
59116;BME280;53564;51.930;4.640;2022-07-19T03:09:32;101904.06;;;21.20;56.21
59116;BME280;53564;51.930;4.640;2022-07-19T03:11:57;101897.72;;;21.05;57.48
59116;BME280;53564;51.930;4.640;2022-07-19T03:14:22;101899.09;;;21.28;57.68
59116;BME280;53564;51.930;4.640;2022-07-19T03:16:47;101909.97;;;21.43;54.89
59116;BME280;53564;51.930;4.640;2022-07-19T03:19:12;101899.19;;;21.27;56.04
59116;BME280;53564;51.930;4.640;2022-07-19T03:21:38;101896.34;;;21.46;55.75
59116;BME280;53564;51.930;4.640;2022-07-19T03:24:03;101902.13;;;21.54;54.58
59116;BME280;53564;51.930;4.640;2022-07-19T03:26:29;101900.41;;;21.69;53.71
59116;BME280;53564;51.930;4.640;2022-07-19T03:28:54;101894.41;;;21.48;57.55
59116;BME280;53564;51.930;4.640;2022-07-19T03:31:19;101901.72;;;21.14;55.27
59116;BME280;53564;51.930;4.640;2022-07-19T03:33:44;101880.91;;;21.48;53.88
59116;BME280;53564;51.930;4.640;2022-07-19T03:36:10;101903.19;;;21.67;54.06
59116;BME280;53564;51.930;4.640;2022-07-19T03:38:35;101888.59;;;21.08;61.20
59116;BME280;53564;51.930;4.640;2022-07-19T03:41:01;101901.88;;;20.61;60.42
59116;BME280;53564;51.930;4.640;2022-07-19T03:43:26;101902.69;;;20.46;64.79
59116;BME280;53564;51.930;4.640;2022-07-19T03:45:52;101898.25;;;20.62;57.77
59116;BME280;53564;51.930;4.640;2022-07-19T03:48:17;101896.34;;;21.14;55.56
59116;BME280;53564;51.930;4.640;2022-07-19T03:50:43;101893.78;;;20.79;58.83
59116;BME280;53564;51.930;4.640;2022-07-19T03:53:08;101893.44;;;21.17;56.02
59116;BME280;53564;51.930;4.640;2022-07-19T03:55:34;101888.06;;;21.33;54.17
59116;BME280;53564;51.930;4.640;2022-07-19T03:57:59;101892.94;;;21.42;54.00
59116;BME280;53564;51.930;4.640;2022-07-19T04:00:24;101896.41;;;21.28;55.46
59116;BME280;53564;51.930;4.640;2022-07-19T04:02:50;101899.94;;;20.81;57.85
59116;BME280;53564;51.930;4.640;2022-07-19T04:05:15;101894.69;;;21.11;55.29
59116;BME280;53564;51.930;4.640;2022-07-19T04:07:40;101898.66;;;21.52;54.25
59116;BME280;53564;51.930;4.640;2022-07-19T04:10:06;101905.22;;;21.16;60.05
59116;BME280;53564;51.930;4.640;2022-07-19T04:12:33;101900.47;;;20.54;61.12
59116;BME280;53564;51.930;4.640;2022-07-19T04:14:58;101900.28;;;19.88;68.36
59116;BME280;53564;51.930;4.640;2022-07-19T04:17:23;101890.78;;;19.62;68.20
59116;BME280;53564;51.930;4.640;2022-07-19T04:19:49;101909.22;;;20.24;62.23
59116;BME280;53564;51.930;4.640;2022-07-19T04:22:14;101905.09;;;20.17;61.06
59116;BME280;53564;51.930;4.640;2022-07-19T04:24:40;101899.00;;;19.96;65.52
59116;BME280;53564;51.930;4.640;2022-07-19T04:27:05;101904.69;;;19.89;69.00
59116;BME280;53564;51.930;4.640;2022-07-19T04:29:30;101903.03;;;20.22;60.68
59116;BME280;53564;51.930;4.640;2022-07-19T04:31:56;101890.13;;;20.96;56.04
59116;BME280;53564;51.930;4.640;2022-07-19T04:34:21;101901.47;;;21.02;55.45
59116;BME280;53564;51.930;4.640;2022-07-19T04:36:46;101889.81;;;21.18;55.23
59116;BME280;53564;51.930;4.640;2022-07-19T04:39:11;101892.41;;;21.35;54.39
59116;BME280;53564;51.930;4.640;2022-07-19T04:41:37;101889.09;;;21.30;54.29
59116;BME280;53564;51.930;4.640;2022-07-19T04:44:02;101894.16;;;21.36;54.46
59116;BME280;53564;51.930;4.640;2022-07-19T04:46:27;101894.25;;;21.35;53.93
59116;BME280;53564;51.930;4.640;2022-07-19T04:48:53;101902.44;;;21.33;54.03
59116;BME280;53564;51.930;4.640;2022-07-19T04:51:18;101901.97;;;21.09;54.84
59116;BME280;53564;51.930;4.640;2022-07-19T04:53:43;101895.03;;;21.21;55.68
59116;BME280;53564;51.930;4.640;2022-07-19T04:56:08;101891.91;;;21.29;54.45
59116;BME280;53564;51.930;4.640;2022-07-19T04:58:34;101894.41;;;21.48;54.02
59116;BME280;53564;51.930;4.640;2022-07-19T05:00:59;101891.53;;;21.51;53.60
59116;BME280;53564;51.930;4.640;2022-07-19T05:03:24;101878.84;;;21.37;56.16
59116;BME280;53564;51.930;4.640;2022-07-19T05:05:49;101890.06;;;21.45;53.88
59116;BME280;53564;51.930;4.640;2022-07-19T05:08:15;101886.16;;;21.19;57.05
59116;BME280;53564;51.930;4.640;2022-07-19T05:10:40;101885.63;;;21.28;53.85
59116;BME280;53564;51.930;4.640;2022-07-19T05:13:05;101891.34;;;21.54;53.49
59116;BME280;53564;51.930;4.640;2022-07-19T05:15:30;101892.16;;;21.56;53.62
59116;BME280;53564;51.930;4.640;2022-07-19T05:17:56;101881.44;;;21.39;54.53
59116;BME280;53564;51.930;4.640;2022-07-19T05:20:21;101880.50;;;21.40;53.52
59116;BME280;53564;51.930;4.640;2022-07-19T05:22:46;101883.97;;;21.42;53.61
59116;BME280;53564;51.930;4.640;2022-07-19T05:25:12;101891.22;;;21.57;53.18
59116;BME280;53564;51.930;4.640;2022-07-19T05:27:37;101878.75;;;21.39;54.69
59116;BME280;53564;51.930;4.640;2022-07-19T05:30:04;101891.22;;;21.57;57.50
59116;BME280;53564;51.930;4.640;2022-07-19T05:32:29;101886.50;;;21.45;53.90
59116;BME280;53564;51.930;4.640;2022-07-19T05:34:55;101886.31;;;21.48;55.20
59116;BME280;53564;51.930;4.640;2022-07-19T05:37:20;101890.50;;;21.70;53.43
59116;BME280;53564;51.930;4.640;2022-07-19T05:39:45;101891.50;;;21.83;52.79
59116;BME280;53564;51.930;4.640;2022-07-19T05:42:10;101880.69;;;21.83;52.61
59116;BME280;53564;51.930;4.640;2022-07-19T05:44:36;101881.28;;;21.58;58.76
59116;BME280;53564;51.930;4.640;2022-07-19T05:47:01;101889.13;;;21.62;56.50
59116;BME280;53564;51.930;4.640;2022-07-19T05:49:26;101896.25;;;21.63;56.81
59116;BME280;53564;51.930;4.640;2022-07-19T05:51:52;101892.56;;;21.64;55.09
59116;BME280;53564;51.930;4.640;2022-07-19T05:54:17;101883.00;;;21.75;53.86
59116;BME280;53564;51.930;4.640;2022-07-19T05:56:42;101896.00;;;21.98;53.51
59116;BME280;53564;51.930;4.640;2022-07-19T05:59:08;101892.13;;;22.03;54.42
59116;BME280;53564;51.930;4.640;2022-07-19T06:01:33;101879.41;;;22.05;52.81
59116;BME280;53564;51.930;4.640;2022-07-19T06:03:59;101887.53;;;22.05;54.09
59116;BME280;53564;51.930;4.640;2022-07-19T06:06:30;101874.72;;;22.08;52.84
59116;BME280;53564;51.930;4.640;2022-07-19T06:08:56;101892.94;;;22.19;52.69
59116;BME280;53564;51.930;4.640;2022-07-19T06:11:22;101893.72;;;22.36;51.99
59116;BME280;53564;51.930;4.640;2022-07-19T06:13:48;101891.34;;;22.31;53.65
59116;BME280;53564;51.930;4.640;2022-07-19T06:16:14;101883.50;;;22.26;52.88
59116;BME280;53564;51.930;4.640;2022-07-19T06:18:39;101881.59;;;22.28;56.74
59116;BME280;53564;51.930;4.640;2022-07-19T06:21:13;101889.63;;;22.44;52.09
59116;BME280;53564;51.930;4.640;2022-07-19T06:23:38;101887.41;;;22.51;55.07
59116;BME280;53564;51.930;4.640;2022-07-19T06:26:05;101880.28;;;22.50;52.36
59116;BME280;53564;51.930;4.640;2022-07-19T06:28:31;101887.03;;;22.57;52.95
59116;BME280;53564;51.930;4.640;2022-07-19T06:30:56;101883.16;;;22.61;53.46
59116;BME280;53564;51.930;4.640;2022-07-19T06:33:21;101882.00;;;22.65;51.97
59116;BME280;53564;51.930;4.640;2022-07-19T06:35:47;101880.88;;;22.70;51.33
59116;BME280;53564;51.930;4.640;2022-07-19T06:38:12;101875.13;;;22.74;51.81
59116;BME280;53564;51.930;4.640;2022-07-19T06:40:38;101880.84;;;22.84;51.53
59116;BME280;53564;51.930;4.640;2022-07-19T06:43:04;101871.88;;;22.84;51.37
59116;BME280;53564;51.930;4.640;2022-07-19T06:45:29;101877.94;;;22.87;51.89
59116;BME280;53564;51.930;4.640;2022-07-19T06:47:54;101865.84;;;22.93;51.38
59116;BME280;53564;51.930;4.640;2022-07-19T06:50:21;101873.69;;;22.97;51.09
59116;BME280;53564;51.930;4.640;2022-07-19T06:52:47;101868.72;;;23.04;51.72
59116;BME280;53564;51.930;4.640;2022-07-19T06:55:13;101877.72;;;23.19;54.81
59116;BME280;53564;51.930;4.640;2022-07-19T06:57:38;101877.53;;;23.22;52.04
59116;BME280;53564;51.930;4.640;2022-07-19T07:00:07;101866.47;;;23.25;53.80
59116;BME280;53564;51.930;4.640;2022-07-19T07:02:36;101862.22;;;23.36;50.64
59116;BME280;53564;51.930;4.640;2022-07-19T07:05:03;101856.31;;;23.56;53.81
59116;BME280;53564;51.930;4.640;2022-07-19T07:07:28;101861.19;;;23.51;55.82
59116;BME280;53564;51.930;4.640;2022-07-19T07:09:54;101869.66;;;23.59;50.29
59116;BME280;53564;51.930;4.640;2022-07-19T07:12:19;101853.97;;;23.65;51.69
59116;BME280;53564;51.930;4.640;2022-07-19T07:14:44;101861.88;;;23.68;50.96
59116;BME280;53564;51.930;4.640;2022-07-19T07:17:09;101843.69;;;23.70;50.61
59116;BME280;53564;51.930;4.640;2022-07-19T07:19:35;101859.38;;;24.18;56.64
59116;BME280;53564;51.930;4.640;2022-07-19T07:22:00;101851.47;;;24.28;54.25
59116;BME280;53564;51.930;4.640;2022-07-19T07:24:27;101853.13;;;24.17;50.18
59116;BME280;53564;51.930;4.640;2022-07-19T07:26:52;101849.97;;;24.23;51.11
59116;BME280;53564;51.930;4.640;2022-07-19T07:29:18;101846.84;;;24.30;50.65
59116;BME280;53564;51.930;4.640;2022-07-19T07:31:43;101855.38;;;24.62;51.63
59116;BME280;53564;51.930;4.640;2022-07-19T07:34:08;101854.59;;;24.73;51.64
59116;BME280;53564;51.930;4.640;2022-07-19T07:36:34;101845.16;;;25.16;52.93
59116;BME280;53564;51.930;4.640;2022-07-19T07:38:59;101847.31;;;25.23;53.93
59116;BME280;53564;51.930;4.640;2022-07-19T07:41:24;101851.69;;;25.13;50.40
59116;BME280;53564;51.930;4.640;2022-07-19T07:43:50;101844.47;;;25.01;49.24
59116;BME280;53564;51.930;4.640;2022-07-19T07:46:15;101851.25;;;25.19;49.33
59116;BME280;53564;51.930;4.640;2022-07-19T07:48:41;101842.25;;;25.43;49.10
59116;BME280;53564;51.930;4.640;2022-07-19T07:51:06;101849.69;;;25.52;49.47
59116;BME280;53564;51.930;4.640;2022-07-19T07:53:31;101846.91;;;25.65;48.18
59116;BME280;53564;51.930;4.640;2022-07-19T07:55:56;101846.72;;;25.80;47.70
59116;BME280;53564;51.930;4.640;2022-07-19T07:58:22;101851.91;;;25.94;47.58
59116;BME280;53564;51.930;4.640;2022-07-19T08:00:47;101844.84;;;25.80;47.83
59116;BME280;53564;51.930;4.640;2022-07-19T08:03:12;101847.53;;;25.69;47.32
59116;BME280;53564;51.930;4.640;2022-07-19T08:05:38;101842.75;;;26.08;47.49
59116;BME280;53564;51.930;4.640;2022-07-19T08:08:04;101844.50;;;26.32;48.30
59116;BME280;53564;51.930;4.640;2022-07-19T08:10:30;101835.59;;;26.64;46.22
59116;BME280;53564;51.930;4.640;2022-07-19T08:12:58;101843.25;;;26.47;46.65
59116;BME280;53564;51.930;4.640;2022-07-19T08:15:23;101835.47;;;26.65;47.31
59116;BME280;53564;51.930;4.640;2022-07-19T08:17:49;101818.91;;;26.57;48.33
59116;BME280;53564;51.930;4.640;2022-07-19T08:20:14;101828.94;;;26.79;45.59
59116;BME280;53564;51.930;4.640;2022-07-19T08:22:39;101832.16;;;26.62;46.50
59116;BME280;53564;51.930;4.640;2022-07-19T08:25:05;101828.16;;;27.00;46.08
59116;BME280;53564;51.930;4.640;2022-07-19T08:27:31;101824.59;;;27.32;44.77
59116;BME280;53564;51.930;4.640;2022-07-19T08:29:58;101823.59;;;27.33;45.09
59116;BME280;53564;51.930;4.640;2022-07-19T08:32:23;101823.72;;;27.64;44.54
59116;BME280;53564;51.930;4.640;2022-07-19T08:34:48;101824.75;;;28.05;45.03
59116;BME280;53564;51.930;4.640;2022-07-19T08:37:14;101818.09;;;27.98;45.09
59116;BME280;53564;51.930;4.640;2022-07-19T08:39:39;101822.81;;;28.17;44.08
59116;BME280;53564;51.930;4.640;2022-07-19T08:42:04;101823.50;;;28.40;42.36
59116;BME280;53564;51.930;4.640;2022-07-19T08:44:29;101808.09;;;28.60;41.74
59116;BME280;53564;51.930;4.640;2022-07-19T08:46:58;101806.50;;;28.58;42.59
59116;BME280;53564;51.930;4.640;2022-07-19T08:49:24;101803.56;;;28.81;42.91
59116;BME280;53564;51.930;4.640;2022-07-19T08:51:50;101799.75;;;28.62;43.16
59116;BME280;53564;51.930;4.640;2022-07-19T08:54:16;101808.72;;;28.84;42.77
59116;BME280;53564;51.930;4.640;2022-07-19T08:56:41;101808.03;;;28.51;42.07
59116;BME280;53564;51.930;4.640;2022-07-19T08:59:26;101794.94;;;28.75;42.02
59116;BME280;53564;51.930;4.640;2022-07-19T09:01:52;101795.00;;;29.15;42.15
59116;BME280;53564;51.930;4.640;2022-07-19T09:04:20;101802.72;;;29.00;41.31
59116;BME280;53564;51.930;4.640;2022-07-19T09:06:55;101801.63;;;29.61;41.15
59116;BME280;53564;51.930;4.640;2022-07-19T09:09:23;101785.09;;;30.20;39.24
59116;BME280;53564;51.930;4.640;2022-07-19T09:11:51;101781.22;;;30.60;38.66
59116;BME280;53564;51.930;4.640;2022-07-19T09:14:20;101791.50;;;30.66;40.20
59116;BME280;53564;51.930;4.640;2022-07-19T09:16:51;101796.81;;;30.50;38.58
59116;BME280;53564;51.930;4.640;2022-07-19T09:19:16;101786.38;;;30.63;39.49
59116;BME280;53564;51.930;4.640;2022-07-19T09:22:03;101773.31;;;30.75;39.31
59116;BME280;53564;51.930;4.640;2022-07-19T09:24:31;101787.41;;;31.08;36.30
59116;BME280;53564;51.930;4.640;2022-07-19T09:29:23;101772.66;;;31.27;34.61
59116;BME280;53564;51.930;4.640;2022-07-19T09:34:34;101775.94;;;31.49;35.02
59116;BME280;53564;51.930;4.640;2022-07-19T09:37:15;101779.75;;;31.56;36.82
59116;BME280;53564;51.930;4.640;2022-07-19T09:39:42;101772.16;;;31.50;35.72
59116;BME280;53564;51.930;4.640;2022-07-19T09:42:11;101760.84;;;31.89;36.25
59116;BME280;53564;51.930;4.640;2022-07-19T09:44:36;101762.41;;;32.00;37.32
59116;BME280;53564;51.930;4.640;2022-07-19T09:47:03;101768.25;;;31.97;36.49
59116;BME280;53564;51.930;4.640;2022-07-19T09:49:28;101759.56;;;32.10;35.93
59116;BME280;53564;51.930;4.640;2022-07-19T09:51:54;101760.25;;;32.38;35.30
59116;BME280;53564;51.930;4.640;2022-07-19T09:54:21;101769.72;;;32.44;36.59
59116;BME280;53564;51.930;4.640;2022-07-19T09:56:48;101764.94;;;32.54;33.89
59116;BME280;53564;51.930;4.640;2022-07-19T09:59:15;101758.19;;;32.83;35.27
59116;BME280;53564;51.930;4.640;2022-07-19T10:01:40;101761.63;;;32.85;36.13
59116;BME280;53564;51.930;4.640;2022-07-19T10:04:09;101763.16;;;32.96;35.19
59116;BME280;53564;51.930;4.640;2022-07-19T10:06:36;101759.06;;;33.00;35.48
59116;BME280;53564;51.930;4.640;2022-07-19T10:09:04;101751.69;;;33.17;34.54
59116;BME280;53564;51.930;4.640;2022-07-19T10:11:33;101757.38;;;33.49;34.84
59116;BME280;53564;51.930;4.640;2022-07-19T10:13:59;101749.63;;;33.61;31.90
59116;BME280;53564;51.930;4.640;2022-07-19T10:19:12;101741.88;;;33.72;34.14
59116;BME280;53564;51.930;4.640;2022-07-19T10:21:41;101731.75;;;33.23;35.23
59116;BME280;53564;51.930;4.640;2022-07-19T10:24:07;101739.88;;;33.41;34.42
59116;BME280;53564;51.930;4.640;2022-07-19T10:26:55;101743.09;;;33.53;33.72
59116;BME280;53564;51.930;4.640;2022-07-19T10:29:22;101741.06;;;33.55;34.41
59116;BME280;53564;51.930;4.640;2022-07-19T10:32:08;101733.91;;;34.02;32.99
59116;BME280;53564;51.930;4.640;2022-07-19T10:34:37;101738.91;;;33.99;32.71
59116;BME280;53564;51.930;4.640;2022-07-19T10:37:03;101723.16;;;33.84;32.79
59116;BME280;53564;51.930;4.640;2022-07-19T10:39:33;101727.47;;;34.27;33.88
59116;BME280;53564;51.930;4.640;2022-07-19T10:42:19;101719.41;;;34.57;30.14
59116;BME280;53564;51.930;4.640;2022-07-19T10:47:19;101715.44;;;34.59;31.27
59116;BME280;53564;51.930;4.640;2022-07-19T10:49:47;101725.31;;;35.00;30.63
59116;BME280;53564;51.930;4.640;2022-07-19T10:57:50;101711.03;;;35.19;31.32
59116;BME280;53564;51.930;4.640;2022-07-19T11:02:44;101704.78;;;35.26;27.36
59116;BME280;53564;51.930;4.640;2022-07-19T11:05:27;101693.66;;;35.72;27.67
59116;BME280;53564;51.930;4.640;2022-07-19T11:07:56;101707.13;;;35.37;28.78
59116;BME280;53564;51.930;4.640;2022-07-19T11:10:27;101694.78;;;35.63;30.97
59116;BME280;53564;51.930;4.640;2022-07-19T11:12:56;101703.44;;;35.75;28.30
59116;BME280;53564;51.930;4.640;2022-07-19T11:15:22;101702.03;;;35.64;28.67
59116;BME280;53564;51.930;4.640;2022-07-19T11:18:07;101695.75;;;35.70;29.06
59116;BME280;53564;51.930;4.640;2022-07-19T11:20:34;101698.03;;;35.81;29.34
59116;BME280;53564;51.930;4.640;2022-07-19T11:23:01;101697.34;;;36.39;29.33
59116;BME280;53564;51.930;4.640;2022-07-19T11:25:34;101696.31;;;36.10;28.42
59116;BME280;53564;51.930;4.640;2022-07-19T11:28:00;101682.72;;;36.09;28.29
59116;BME280;53564;51.930;4.640;2022-07-19T11:30:27;101690.41;;;35.98;28.44
59116;BME280;53564;51.930;4.640;2022-07-19T11:32:59;101690.09;;;36.23;27.67
59116;BME280;53564;51.930;4.640;2022-07-19T11:35:25;101693.91;;;36.22;28.01
59116;BME280;53564;51.930;4.640;2022-07-19T11:37:53;101682.63;;;36.02;28.20
59116;BME280;53564;51.930;4.640;2022-07-19T11:40:19;101672.47;;;36.39;29.28
59116;BME280;53564;51.930;4.640;2022-07-19T11:42:47;101667.91;;;36.46;25.50
59116;BME280;53564;51.930;4.640;2022-07-19T11:45:15;101669.63;;;36.91;26.20
59116;BME280;53564;51.930;4.640;2022-07-19T11:47:52;101673.97;;;37.00;26.25
59116;BME280;53564;51.930;4.640;2022-07-19T11:50:20;101672.03;;;36.79;26.88
59116;BME280;53564;51.930;4.640;2022-07-19T11:52:51;101654.09;;;36.90;28.86
59116;BME280;53564;51.930;4.640;2022-07-19T11:55:19;101656.47;;;36.93;27.22
59116;BME280;53564;51.930;4.640;2022-07-19T11:57:45;101652.66;;;36.94;25.24
59116;BME280;53564;51.930;4.640;2022-07-19T12:00:11;101650.91;;;37.15;28.11
59116;BME280;53564;51.930;4.640;2022-07-19T12:02:54;101651.66;;;37.02;25.71
59116;BME280;53564;51.930;4.640;2022-07-19T12:05:25;101636.25;;;37.21;26.12
59116;BME280;53564;51.930;4.640;2022-07-19T12:07:51;101628.66;;;37.30;24.93
59116;BME280;53564;51.930;4.640;2022-07-19T12:13:09;101630.94;;;36.91;26.61
59116;BME280;53564;51.930;4.640;2022-07-19T12:18:16;101637.78;;;37.52;26.58
59116;BME280;53564;51.930;4.640;2022-07-19T12:20:43;101629.06;;;37.90;27.30
59116;BME280;53564;51.930;4.640;2022-07-19T12:23:18;101626.97;;;38.05;25.96
59116;BME280;53564;51.930;4.640;2022-07-19T12:25:48;101610.84;;;38.22;22.03
59116;BME280;53564;51.930;4.640;2022-07-19T12:28:15;101616.44;;;38.56;25.40
59116;BME280;53564;51.930;4.640;2022-07-19T12:30:40;101615.75;;;38.27;23.84
59116;BME280;53564;51.930;4.640;2022-07-19T12:33:11;101621.00;;;37.95;23.57
59116;BME280;53564;51.930;4.640;2022-07-19T12:35:45;101604.00;;;38.05;25.53
59116;BME280;53564;51.930;4.640;2022-07-19T12:38:12;101600.00;;;38.28;21.37
59116;BME280;53564;51.930;4.640;2022-07-19T12:40:40;101605.94;;;38.11;21.43
59116;BME280;53564;51.930;4.640;2022-07-19T12:43:06;101596.44;;;39.01;25.03
59116;BME280;53564;51.930;4.640;2022-07-19T12:45:40;101597.72;;;38.58;21.98
59116;BME280;53564;51.930;4.640;2022-07-19T12:48:07;101600.25;;;38.39;22.79
59116;BME280;53564;51.930;4.640;2022-07-19T12:50:47;101588.75;;;38.29;25.50
59116;BME280;53564;51.930;4.640;2022-07-19T12:53:16;101579.63;;;38.76;23.56
59116;BME280;53564;51.930;4.640;2022-07-19T12:55:43;101573.78;;;38.23;21.86
59116;BME280;53564;51.930;4.640;2022-07-19T12:58:10;101573.84;;;39.24;20.53
59116;BME280;53564;51.930;4.640;2022-07-19T13:00:39;101569.59;;;38.95;22.18
59116;BME280;53564;51.930;4.640;2022-07-19T13:03:06;101571.31;;;38.76;22.50
59116;BME280;53564;51.930;4.640;2022-07-19T13:05:32;101564.28;;;38.66;21.46
59116;BME280;53564;51.930;4.640;2022-07-19T13:07:58;101572.66;;;39.52;22.66
59116;BME280;53564;51.930;4.640;2022-07-19T13:10:25;101568.72;;;38.61;23.98
59116;BME280;53564;51.930;4.640;2022-07-19T13:12:50;101571.63;;;39.46;21.58